sensor_id;sensor_type;location;lat;lon;timestamp;pressure;altitude;pressure_sealevel;temperature;humidity
51081;BME280;37130;55.670;37.596;2022-12-22T00:02:12;98668.16;;;-0.23;100.00
51081;BME280;37130;55.670;37.596;2022-12-22T00:04:59;98651.75;;;-0.26;100.00
51081;BME280;37130;55.670;37.596;2022-12-22T00:07:46;98670.06;;;-0.32;100.00
51081;BME280;37130;55.670;37.596;2022-12-22T00:10:33;98662.97;;;-0.24;100.00
51081;BME280;37130;55.670;37.596;2022-12-22T00:13:19;98656.06;;;-0.27;100.00
51081;BME280;37130;55.670;37.596;2022-12-22T00:16:07;98664.63;;;-0.20;100.00
51081;BME280;37130;55.670;37.596;2022-12-22T00:18:53;98608.88;;;-0.52;100.00
51081;BME280;37130;55.670;37.596;2022-12-22T00:21:39;98669.69;;;-0.12;100.00
51081;BME280;37130;55.670;37.596;2022-12-22T00:24:25;98669.63;;;-0.11;100.00
51081;BME280;37130;55.670;37.596;2022-12-22T00:27:19;98668.78;;;-0.11;100.00
51081;BME280;37130;55.670;37.596;2022-12-22T00:30:13;98668.69;;;-0.05;100.00
51081;BME280;37130;55.670;37.596;2022-12-22T00:33:00;98613.03;;;-0.41;100.00
51081;BME280;37130;55.670;37.596;2022-12-22T00:35:48;98664.34;;;-0.05;100.00
51081;BME280;37130;55.670;37.596;2022-12-22T00:38:35;98655.59;;;-0.02;100.00
51081;BME280;37130;55.670;37.596;2022-12-22T00:41:21;98652.09;;;-0.01;100.00
51081;BME280;37130;55.670;37.596;2022-12-22T00:44:08;98652.09;;;-0.01;100.00
51081;BME280;37130;55.670;37.596;2022-12-22T00:46:54;98650.34;;;0.01;100.00
51081;BME280;37130;55.670;37.596;2022-12-22T00:49:44;98645.97;;;0.02;100.00
51081;BME280;37130;55.670;37.596;2022-12-22T00:52:31;98637.25;;;0.04;100.00
51081;BME280;37130;55.670;37.596;2022-12-22T00:55:18;98637.50;;;-0.08;100.00
51081;BME280;37130;55.670;37.596;2022-12-22T00:58:12;98638.25;;;-0.03;100.00
51081;BME280;37130;55.670;37.596;2022-12-22T01:00:59;98639.94;;;0.01;100.00
51081;BME280;37130;55.670;37.596;2022-12-22T01:03:45;98630.38;;;0.02;100.00
51081;BME280;37130;55.670;37.596;2022-12-22T01:06:33;98636.47;;;0.01;100.00
51081;BME280;37130;55.670;37.596;2022-12-22T01:09:21;98632.94;;;0.03;100.00
51081;BME280;37130;55.670;37.596;2022-12-22T01:12:13;98596.16;;;-0.22;100.00
51081;BME280;37130;55.670;37.596;2022-12-22T01:14:59;98622.59;;;0.00;100.00
51081;BME280;37130;55.670;37.596;2022-12-22T01:17:45;98623.38;;;0.04;100.00
51081;BME280;37130;55.670;37.596;2022-12-22T01:20:31;98618.19;;;0.04;100.00
51081;BME280;37130;55.670;37.596;2022-12-22T01:23:17;98622.50;;;0.05;100.00
51081;BME280;37130;55.670;37.596;2022-12-22T01:26:07;98595.91;;;-0.10;100.00
51081;BME280;37130;55.670;37.596;2022-12-22T01:28:53;98617.22;;;0.08;100.00
51081;BME280;37130;55.670;37.596;2022-12-22T01:31:40;98617.19;;;0.09;100.00
51081;BME280;37130;55.670;37.596;2022-12-22T01:34:26;98610.22;;;0.10;100.00
51081;BME280;37130;55.670;37.596;2022-12-22T01:37:12;98606.75;;;0.11;100.00
51081;BME280;37130;55.670;37.596;2022-12-22T01:39:58;98604.94;;;0.13;100.00
51081;BME280;37130;55.670;37.596;2022-12-22T01:42:44;98604.09;;;0.14;100.00
51081;BME280;37130;55.670;37.596;2022-12-22T01:45:32;98604.88;;;0.17;100.00
51081;BME280;37130;55.670;37.596;2022-12-22T01:48:29;98548.38;;;-0.18;100.00
51081;BME280;37130;55.670;37.596;2022-12-22T01:51:25;98598.78;;;0.18;100.00
51081;BME280;37130;55.670;37.596;2022-12-22T01:54:13;98591.22;;;0.06;100.00
51081;BME280;37130;55.670;37.596;2022-12-22T01:57:00;98583.22;;;0.15;100.00
51081;BME280;37130;55.670;37.596;2022-12-22T01:59:46;98590.16;;;0.16;100.00
51081;BME280;37130;55.670;37.596;2022-12-22T02:02:38;98588.38;;;0.17;100.00
51081;BME280;37130;55.670;37.596;2022-12-22T02:05:24;98587.47;;;0.19;100.00
51081;BME280;37130;55.670;37.596;2022-12-22T02:26:02;98583.84;;;0.27;100.00
51081;BME280;37130;55.670;37.596;2022-12-22T02:28:51;98588.06;;;0.31;100.00
51081;BME280;37130;55.670;37.596;2022-12-22T02:31:38;98588.94;;;0.31;100.00
51081;BME280;37130;55.670;37.596;2022-12-22T02:34:24;98578.50;;;0.31;100.00
51081;BME280;37130;55.670;37.596;2022-12-22T02:40:33;98585.44;;;0.32;100.00
51081;BME280;37130;55.670;37.596;2022-12-22T02:46:29;98586.31;;;0.31;100.00
51081;BME280;37130;55.670;37.596;2022-12-22T02:49:24;98546.94;;;0.08;100.00
51081;BME280;37130;55.670;37.596;2022-12-22T02:52:16;98576.78;;;0.32;100.00
51081;BME280;37130;55.670;37.596;2022-12-22T02:55:04;98587.06;;;0.38;100.00
51081;BME280;37130;55.670;37.596;2022-12-22T02:57:50;98583.88;;;0.24;100.00
51081;BME280;37130;55.670;37.596;2022-12-22T03:00:38;98588.06;;;0.31;100.00
51081;BME280;37130;55.670;37.596;2022-12-22T03:03:24;98585.41;;;0.34;100.00
51081;BME280;37130;55.670;37.596;2022-12-22T03:06:10;98578.50;;;0.33;100.00
51081;BME280;37130;55.670;37.596;2022-12-22T03:08:56;98580.16;;;0.35;100.00
51081;BME280;37130;55.670;37.596;2022-12-22T03:11:42;98529.72;;;0.02;100.00
51081;BME280;37130;55.670;37.596;2022-12-22T03:14:29;98533.00;;;0.10;100.00
51081;BME280;37130;55.670;37.596;2022-12-22T03:17:15;98580.09;;;0.38;100.00
51081;BME280;37130;55.670;37.596;2022-12-22T03:20:01;98575.78;;;0.37;100.00
51081;BME280;37130;55.670;37.596;2022-12-22T03:22:48;98583.50;;;0.42;100.00
51081;BME280;37130;55.670;37.596;2022-12-22T03:25:34;98570.47;;;0.42;100.00
51081;BME280;37130;55.670;37.596;2022-12-22T03:28:20;98582.53;;;0.44;100.00
51081;BME280;37130;55.670;37.596;2022-12-22T03:30:58;98576.53;;;0.42;100.00
51081;BME280;37130;55.670;37.596;2022-12-22T03:33:28;98573.03;;;0.43;100.00
51081;BME280;37130;55.670;37.596;2022-12-22T03:35:56;98570.47;;;0.42;100.00
51081;BME280;37130;55.670;37.596;2022-12-22T03:38:24;98583.34;;;0.48;100.00
51081;BME280;37130;55.670;37.596;2022-12-22T03:40:52;98566.91;;;0.44;100.00
51081;BME280;37130;55.670;37.596;2022-12-22T03:43:19;98566.91;;;0.44;100.00
51081;BME280;37130;55.670;37.596;2022-12-22T03:46:06;98574.72;;;0.44;100.00
51081;BME280;37130;55.670;37.596;2022-12-22T03:48:36;98561.69;;;0.46;100.00
51081;BME280;37130;55.670;37.596;2022-12-22T03:51:03;98574.63;;;0.49;100.00
51081;BME280;37130;55.670;37.596;2022-12-22T03:53:31;98515.50;;;0.17;100.00
51081;BME280;37130;55.670;37.596;2022-12-22T03:55:58;98553.13;;;0.41;100.00
51081;BME280;37130;55.670;37.596;2022-12-22T03:58:33;98571.06;;;0.53;100.00
51081;BME280;37130;55.670;37.596;2022-12-22T04:01:05;98508.63;;;0.13;100.00
51081;BME280;37130;55.670;37.596;2022-12-22T04:03:33;98536.09;;;0.26;100.00
51081;BME280;37130;55.670;37.596;2022-12-22T04:06:02;98579.84;;;0.49;100.00
51081;BME280;37130;55.670;37.596;2022-12-22T04:08:29;98545.53;;;0.32;100.00
51081;BME280;37130;55.670;37.596;2022-12-22T04:10:57;98560.84;;;0.44;100.00
51081;BME280;37130;55.670;37.596;2022-12-22T04:13:43;98561.69;;;0.46;100.00
51081;BME280;37130;55.670;37.596;2022-12-22T04:16:11;98526.56;;;0.27;100.00
51081;BME280;37130;55.670;37.596;2022-12-22T04:18:38;98536.00;;;0.31;100.00
51081;BME280;37130;55.670;37.596;2022-12-22T04:21:06;98554.69;;;0.48;100.00
51081;BME280;37130;55.670;37.596;2022-12-22T04:23:33;98559.00;;;0.49;100.00
51081;BME280;37130;55.670;37.596;2022-12-22T04:26:00;98485.44;;;0.04;100.00
51081;BME280;37130;55.670;37.596;2022-12-22T04:28:28;98552.00;;;0.51;100.00
51081;BME280;37130;55.670;37.596;2022-12-22T04:30:55;98564.09;;;0.55;100.00
51081;BME280;37130;55.670;37.596;2022-12-22T04:33:23;98565.88;;;0.52;100.00
51081;BME280;37130;55.670;37.596;2022-12-22T04:35:51;98563.34;;;0.49;100.00
51081;BME280;37130;55.670;37.596;2022-12-22T04:38:18;98554.63;;;0.51;100.00
51081;BME280;37130;55.670;37.596;2022-12-22T04:40:46;98540.16;;;0.39;100.00
51081;BME280;37130;55.670;37.596;2022-12-22T04:43:13;98569.22;;;0.58;100.00
51081;BME280;37130;55.670;37.596;2022-12-22T04:45:43;98558.00;;;0.55;100.00
51081;BME280;37130;55.670;37.596;2022-12-22T04:48:10;98556.41;;;0.49;100.00
51081;BME280;37130;55.670;37.596;2022-12-22T04:50:38;98568.38;;;0.56;100.00
51081;BME280;37130;55.670;37.596;2022-12-22T04:53:05;98559.66;;;0.59;100.00
51081;BME280;37130;55.670;37.596;2022-12-22T04:55:33;98562.28;;;0.57;100.00
51081;BME280;37130;55.670;37.596;2022-12-22T04:58:01;98562.34;;;0.54;100.00
51081;BME280;37130;55.670;37.596;2022-12-22T05:00:28;98545.38;;;0.39;100.00
51081;BME280;37130;55.670;37.596;2022-12-22T05:02:56;98573.56;;;0.58;100.00
51081;BME280;37130;55.670;37.596;2022-12-22T05:05:24;98582.19;;;0.60;100.00
51081;BME280;37130;55.670;37.596;2022-12-22T05:07:51;98571.75;;;0.61;100.00
51081;BME280;37130;55.670;37.596;2022-12-22T05:10:18;98572.59;;;0.62;100.00
51081;BME280;37130;55.670;37.596;2022-12-22T05:12:46;98575.16;;;0.63;100.00
51081;BME280;37130;55.670;37.596;2022-12-22T05:15:25;98588.28;;;0.60;100.00
51081;BME280;37130;55.670;37.596;2022-12-22T05:17:53;98587.38;;;0.61;100.00
51081;BME280;37130;55.670;37.596;2022-12-22T05:20:20;98584.75;;;0.63;100.00
51081;BME280;37130;55.670;37.596;2022-12-22T05:22:48;98513.00;;;0.12;100.00
51081;BME280;37130;55.670;37.596;2022-12-22T05:25:16;98550.59;;;0.38;100.00
51081;BME280;37130;55.670;37.596;2022-12-22T05:27:48;98598.69;;;0.60;100.00
51081;BME280;37130;55.670;37.596;2022-12-22T05:30:16;98607.31;;;0.62;100.00
51081;BME280;37130;55.670;37.596;2022-12-22T05:32:45;98612.47;;;0.65;100.00
51081;BME280;37130;55.670;37.596;2022-12-22T05:35:13;98607.31;;;0.62;100.00
51081;BME280;37130;55.670;37.596;2022-12-22T05:37:40;98612.53;;;0.62;100.00
51081;BME280;37130;55.670;37.596;2022-12-22T05:40:10;98605.75;;;0.55;100.00
51081;BME280;37130;55.670;37.596;2022-12-22T05:42:38;98613.44;;;0.60;100.00
51081;BME280;37130;55.670;37.596;2022-12-22T05:45:17;98616.06;;;0.60;100.00
51081;BME280;37130;55.670;37.596;2022-12-22T05:47:48;98616.78;;;0.67;100.00
51081;BME280;37130;55.670;37.596;2022-12-22T05:50:19;98615.94;;;0.66;100.00
51081;BME280;37130;55.670;37.596;2022-12-22T05:52:57;98547.50;;;0.22;100.00
51081;BME280;37130;55.670;37.596;2022-12-22T05:55:24;98617.72;;;0.64;100.00
51081;BME280;37130;55.670;37.596;2022-12-22T05:57:52;98609.97;;;0.61;100.00
51081;BME280;37130;55.670;37.596;2022-12-22T06:00:20;98618.56;;;0.64;100.00
51081;BME280;37130;55.670;37.596;2022-12-22T06:02:47;98625.44;;;0.67;100.00
51081;BME280;37130;55.670;37.596;2022-12-22T06:05:15;98621.09;;;0.68;100.00
51081;BME280;37130;55.670;37.596;2022-12-22T06:07:43;98629.81;;;0.67;100.00
51081;BME280;37130;55.670;37.596;2022-12-22T06:10:11;98625.50;;;0.65;100.00
51081;BME280;37130;55.670;37.596;2022-12-22T06:12:40;98526.84;;;0.13;100.00
51081;BME280;37130;55.670;37.596;2022-12-22T06:15:10;98625.44;;;0.67;100.00
51081;BME280;37130;55.670;37.596;2022-12-22T06:17:38;98615.00;;;0.69;100.00
51081;BME280;37130;55.670;37.596;2022-12-22T06:20:12;98614.03;;;0.73;100.00
51081;BME280;37130;55.670;37.596;2022-12-22T06:22:39;98616.63;;;0.73;100.00
51081;BME280;37130;55.670;37.596;2022-12-22T06:25:08;98624.50;;;0.71;100.00
51081;BME280;37130;55.670;37.596;2022-12-22T06:27:44;98621.00;;;0.71;100.00
51081;BME280;37130;55.670;37.596;2022-12-22T06:30:13;98606.44;;;0.63;100.00
51081;BME280;37130;55.670;37.596;2022-12-22T06:32:41;98620.88;;;0.77;100.00
51081;BME280;37130;55.670;37.596;2022-12-22T06:35:09;98617.28;;;0.81;100.00
51081;BME280;37130;55.670;37.596;2022-12-22T06:37:37;98615.50;;;0.83;100.00
51081;BME280;37130;55.670;37.596;2022-12-22T06:40:05;98612.09;;;0.81;100.00
51081;BME280;37130;55.670;37.596;2022-12-22T06:42:58;98615.75;;;0.74;100.00
51081;BME280;37130;55.670;37.596;2022-12-22T06:45:40;98627.78;;;0.78;100.00
51081;BME280;37130;55.670;37.596;2022-12-22T06:48:10;98566.13;;;0.42;100.00
51081;BME280;37130;55.670;37.596;2022-12-22T06:50:38;98585.69;;;0.59;100.00
51081;BME280;37130;55.670;37.596;2022-12-22T06:53:07;98553.97;;;0.41;100.00
51081;BME280;37130;55.670;37.596;2022-12-22T06:55:35;98620.63;;;0.87;100.00
51081;BME280;37130;55.670;37.596;2022-12-22T06:58:03;98618.91;;;0.86;100.00
51081;BME280;37130;55.670;37.596;2022-12-22T07:00:32;98622.25;;;0.92;100.00
51081;BME280;37130;55.670;37.596;2022-12-22T07:02:59;98567.44;;;0.60;100.00
51081;BME280;37130;55.670;37.596;2022-12-22T07:05:27;98580.56;;;0.56;100.00
51081;BME280;37130;55.670;37.596;2022-12-22T07:07:58;98611.16;;;0.83;100.00
51081;BME280;37130;55.670;37.596;2022-12-22T07:10:33;98623.22;;;0.87;100.00
51081;BME280;37130;55.670;37.596;2022-12-22T07:13:19;98624.91;;;0.90;100.00
51081;BME280;37130;55.670;37.596;2022-12-22T07:15:47;98617.09;;;0.90;100.00
51081;BME280;37130;55.670;37.596;2022-12-22T07:18:27;98602.56;;;0.80;100.00
51081;BME280;37130;55.670;37.596;2022-12-22T07:20:54;98554.63;;;0.51;100.00
51081;BME280;37130;55.670;37.596;2022-12-22T07:23:22;98598.94;;;0.85;100.00
51081;BME280;37130;55.670;37.596;2022-12-22T07:25:49;98620.25;;;1.03;100.00
51081;BME280;37130;55.670;37.596;2022-12-22T07:28:17;98613.19;;;1.06;100.00
51081;BME280;37130;55.670;37.596;2022-12-22T07:30:50;98633.31;;;1.01;100.00
51081;BME280;37130;55.670;37.596;2022-12-22T07:33:19;98586.25;;;0.72;100.00
51081;BME280;37130;55.670;37.596;2022-12-22T07:35:46;98576.59;;;0.75;100.00
51081;BME280;37130;55.670;37.596;2022-12-22T07:38:14;98628.16;;;1.00;100.00
51081;BME280;37130;55.670;37.596;2022-12-22T07:40:42;98626.47;;;0.97;100.00
51081;BME280;37130;55.670;37.596;2022-12-22T07:43:14;98623.13;;;0.92;100.00
51081;BME280;37130;55.670;37.596;2022-12-22T07:45:41;98631.59;;;1.00;100.00
51081;BME280;37130;55.670;37.596;2022-12-22T07:48:08;98577.53;;;0.73;100.00
51081;BME280;37130;55.670;37.596;2022-12-22T07:51:03;98594.75;;;0.80;100.00
51081;BME280;37130;55.670;37.596;2022-12-22T07:53:32;98639.38;;;1.02;100.00
51081;BME280;37130;55.670;37.596;2022-12-22T07:56:02;98632.34;;;1.05;100.00
51081;BME280;37130;55.670;37.596;2022-12-22T07:58:29;98541.56;;;0.53;100.00
51081;BME280;37130;55.670;37.596;2022-12-22T08:00:58;98594.63;;;0.84;100.00
51081;BME280;37130;55.670;37.596;2022-12-22T08:03:26;98650.34;;;1.16;100.00
51081;BME280;37130;55.670;37.596;2022-12-22T08:05:53;98640.75;;;1.17;100.00
51081;BME280;37130;55.670;37.596;2022-12-22T08:08:21;98585.97;;;0.84;100.00
51081;BME280;37130;55.670;37.596;2022-12-22T08:10:49;98603.94;;;0.95;100.00
51081;BME280;37130;55.670;37.596;2022-12-22T08:13:16;98552.59;;;0.62;100.00
51081;BME280;37130;55.670;37.596;2022-12-22T08:15:46;98648.56;;;1.18;100.00
51081;BME280;37130;55.670;37.596;2022-12-22T08:18:14;98586.75;;;0.87;100.00
51081;BME280;37130;55.670;37.596;2022-12-22T08:20:48;98636.28;;;1.22;100.00
51081;BME280;37130;55.670;37.596;2022-12-22T08:23:17;98633.56;;;1.26;100.00
51081;BME280;37130;55.670;37.596;2022-12-22T08:25:47;98634.59;;;1.19;100.00
51081;BME280;37130;55.670;37.596;2022-12-22T08:28:17;98645.03;;;1.19;100.00
51081;BME280;37130;55.670;37.596;2022-12-22T08:30:45;98639.84;;;1.18;100.00
51081;BME280;37130;55.670;37.596;2022-12-22T08:33:13;98634.69;;;1.16;100.00
51081;BME280;37130;55.670;37.596;2022-12-22T08:35:41;98634.63;;;1.18;100.00
51081;BME280;37130;55.670;37.596;2022-12-22T08:38:10;98633.75;;;1.19;100.00
51081;BME280;37130;55.670;37.596;2022-12-22T08:40:42;98632.00;;;1.19;100.00
51081;BME280;37130;55.670;37.596;2022-12-22T08:43:11;98599.50;;;0.98;100.00
51081;BME280;37130;55.670;37.596;2022-12-22T08:45:40;98631.97;;;1.21;100.00
51081;BME280;37130;55.670;37.596;2022-12-22T08:48:09;98644.03;;;1.25;100.00
51081;BME280;37130;55.670;37.596;2022-12-22T08:50:37;98632.63;;;1.29;100.00
51081;BME280;37130;55.670;37.596;2022-12-22T08:53:06;98632.47;;;1.35;100.00
51081;BME280;37130;55.670;37.596;2022-12-22T08:55:54;98634.25;;;1.33;100.00
51081;BME280;37130;55.670;37.596;2022-12-22T08:58:22;98591.38;;;1.11;100.00
51081;BME280;37130;55.670;37.596;2022-12-22T09:00:50;98623.06;;;1.28;100.00
51081;BME280;37130;55.670;37.596;2022-12-22T09:03:17;98616.19;;;1.25;100.00
51081;BME280;37130;55.670;37.596;2022-12-22T09:05:45;98629.81;;;1.37;100.00
51081;BME280;37130;55.670;37.596;2022-12-22T09:08:13;98618.56;;;1.35;100.00
51081;BME280;37130;55.670;37.596;2022-12-22T09:10:41;98629.56;;;1.46;100.00
51081;BME280;37130;55.670;37.596;2022-12-22T09:13:10;98642.63;;;1.46;100.00
51081;BME280;37130;55.670;37.596;2022-12-22T09:15:38;98639.88;;;1.50;100.00
51081;BME280;37130;55.670;37.596;2022-12-22T09:18:05;98639.78;;;1.55;100.00
51081;BME280;37130;55.670;37.596;2022-12-22T09:20:34;98544.97;;;0.91;100.00
51081;BME280;37130;55.670;37.596;2022-12-22T09:23:01;98634.66;;;1.52;100.00
51081;BME280;37130;55.670;37.596;2022-12-22T09:25:29;98640.63;;;1.56;100.00
51081;BME280;37130;55.670;37.596;2022-12-22T09:27:57;98636.16;;;1.59;100.00
51081;BME280;37130;55.670;37.596;2022-12-22T09:30:24;98611.28;;;1.47;100.00
51081;BME280;37130;55.670;37.596;2022-12-22T09:32:53;98646.19;;;1.74;100.00
51081;BME280;37130;55.670;37.596;2022-12-22T09:35:21;98649.50;;;1.81;100.00
51081;BME280;37130;55.670;37.596;2022-12-22T09:37:49;98650.28;;;1.85;100.00
51081;BME280;37130;55.670;37.596;2022-12-22T09:40:16;98644.19;;;1.84;100.00
51081;BME280;37130;55.670;37.596;2022-12-22T09:42:57;98650.28;;;1.83;100.00
51081;BME280;37130;55.670;37.596;2022-12-22T09:45:39;98648.78;;;1.76;100.00
51081;BME280;37130;55.670;37.596;2022-12-22T09:48:10;98658.50;;;1.69;100.00
51081;BME280;37130;55.670;37.596;2022-12-22T09:50:40;98655.22;;;1.63;100.00
51081;BME280;37130;55.670;37.596;2022-12-22T09:53:19;98650.31;;;1.50;100.00
51081;BME280;37130;55.670;37.596;2022-12-22T09:55:48;98655.53;;;1.50;100.00
51081;BME280;37130;55.670;37.596;2022-12-22T09:58:29;98619.03;;;1.16;100.00
51081;BME280;37130;55.670;37.596;2022-12-22T10:03:47;98655.81;;;1.40;100.00
51081;BME280;37130;55.670;37.596;2022-12-22T10:06:33;98658.56;;;1.34;100.00
51081;BME280;37130;55.670;37.596;2022-12-22T10:09:23;98656.97;;;1.28;100.00
51081;BME280;37130;55.670;37.596;2022-12-22T10:12:15;98656.13;;;1.27;100.00
51081;BME280;37130;55.670;37.596;2022-12-22T10:14:46;98663.94;;;1.29;100.00
51081;BME280;37130;55.670;37.596;2022-12-22T10:17:24;98623.78;;;1.00;100.00
51081;BME280;37130;55.670;37.596;2022-12-22T10:23:18;98646.91;;;1.14;100.00
51081;BME280;37130;55.670;37.596;2022-12-22T10:28:53;98605.81;;;0.90;100.00
51081;BME280;37130;55.670;37.596;2022-12-22T10:31:27;98639.06;;;1.16;100.00
51081;BME280;37130;55.670;37.596;2022-12-22T10:34:11;98637.19;;;1.21;100.00
51081;BME280;37130;55.670;37.596;2022-12-22T10:36:51;98635.16;;;1.32;100.00
51081;BME280;37130;55.670;37.596;2022-12-22T10:39:21;98629.84;;;1.35;100.00
51081;BME280;37130;55.670;37.596;2022-12-22T10:41:52;98641.75;;;1.45;100.00
51081;BME280;37130;55.670;37.596;2022-12-22T10:44:27;98646.06;;;1.46;100.00
51081;BME280;37130;55.670;37.596;2022-12-22T10:47:17;98650.34;;;1.49;100.00
51081;BME280;37130;55.670;37.596;2022-12-22T10:49:54;98643.22;;;1.56;100.00
51081;BME280;37130;55.670;37.596;2022-12-22T10:52:26;98632.25;;;1.43;100.00
51081;BME280;37130;55.670;37.596;2022-12-22T10:55:18;98641.88;;;1.41;100.00
51081;BME280;37130;55.670;37.596;2022-12-22T10:57:46;98581.81;;;1.11;100.00
51081;BME280;37130;55.670;37.596;2022-12-22T11:00:25;98640.16;;;1.40;100.00
51081;BME280;37130;55.670;37.596;2022-12-22T11:02:55;98646.25;;;1.40;100.00
51081;BME280;37130;55.670;37.596;2022-12-22T11:05:23;98640.13;;;1.41;100.00
51081;BME280;37130;55.670;37.596;2022-12-22T11:07:51;98646.25;;;1.40;100.00
51081;BME280;37130;55.670;37.596;2022-12-22T11:10:40;98646.22;;;1.42;100.00
51081;BME280;37130;55.670;37.596;2022-12-22T11:19:38;98661.06;;;1.38;100.00
51081;BME280;37130;55.670;37.596;2022-12-22T11:57:38;98686.00;;;1.16;100.00
51081;BME280;37130;55.670;37.596;2022-12-22T12:00:15;98688.53;;;1.17;100.00
51081;BME280;37130;55.670;37.596;2022-12-22T12:11:25;98695.53;;;1.17;100.00
51081;BME280;37130;55.670;37.596;2022-12-22T12:14:26;98701.63;;;1.16;100.00
51081;BME280;37130;55.670;37.596;2022-12-22T12:20:52;98699.91;;;1.15;100.00
51081;BME280;37130;55.670;37.596;2022-12-22T12:26:19;98713.09;;;1.08;100.00
51081;BME280;37130;55.670;37.596;2022-12-22T12:29:45;98705.47;;;1.01;100.00
51081;BME280;37130;55.670;37.596;2022-12-22T12:32:12;98713.34;;;0.98;100.00
51081;BME280;37130;55.670;37.596;2022-12-22T12:34:46;98702.00;;;1.00;100.00
51081;BME280;37130;55.670;37.596;2022-12-22T12:37:32;98709.59;;;1.09;100.00
51081;BME280;37130;55.670;37.596;2022-12-22T12:42:56;98704.44;;;1.08;100.00
51081;BME280;37130;55.670;37.596;2022-12-22T12:45:43;98657.31;;;0.78;100.00
51081;BME280;37130;55.670;37.596;2022-12-22T12:50:50;98716.56;;;1.09;100.00
51081;BME280;37130;55.670;37.596;2022-12-22T12:53:22;98695.81;;;1.04;100.00
51081;BME280;37130;55.670;37.596;2022-12-22T13:01:12;98691.94;;;0.83;100.00
51081;BME280;37130;55.670;37.596;2022-12-22T13:03:58;98709.63;;;1.08;100.00
51081;BME280;37130;55.670;37.596;2022-12-22T13:09:21;98650.44;;;0.76;100.00
51081;BME280;37130;55.670;37.596;2022-12-22T13:12:38;98699.28;;;1.05;100.00
51081;BME280;37130;55.670;37.596;2022-12-22T13:17:53;98673.94;;;0.74;100.00
51081;BME280;37130;55.670;37.596;2022-12-22T13:20:24;98719.31;;;1.03;100.00
51081;BME280;37130;55.670;37.596;2022-12-22T13:22:58;98722.88;;;0.99;100.00
51081;BME280;37130;55.670;37.596;2022-12-22T13:25:43;98712.34;;;1.03;100.00
51081;BME280;37130;55.670;37.596;2022-12-22T13:28:15;98717.66;;;0.99;100.00
51081;BME280;37130;55.670;37.596;2022-12-22T13:30:46;98712.28;;;1.06;100.00
51081;BME280;37130;55.670;37.596;2022-12-22T13:33:17;98717.47;;;1.08;100.00
51081;BME280;37130;55.670;37.596;2022-12-22T13:35:46;98727.00;;;1.09;100.00
51081;BME280;37130;55.670;37.596;2022-12-22T13:38:27;98718.69;;;0.92;100.00
51081;BME280;37130;55.670;37.596;2022-12-22T13:40:57;98724.44;;;1.07;100.00
51081;BME280;37130;55.670;37.596;2022-12-22T13:43:26;98723.47;;;1.10;100.00
51081;BME280;37130;55.670;37.596;2022-12-22T13:45:57;98675.56;;;0.78;100.00
51081;BME280;37130;55.670;37.596;2022-12-22T13:54:11;98737.34;;;1.12;100.00
51081;BME280;37130;55.670;37.596;2022-12-22T13:56:49;98688.63;;;0.77;100.00
51081;BME280;37130;55.670;37.596;2022-12-22T14:01:59;98690.25;;;0.81;100.00
51081;BME280;37130;55.670;37.596;2022-12-22T14:04:28;98746.91;;;1.13;100.00
51081;BME280;37130;55.670;37.596;2022-12-22T14:07:09;98747.06;;;1.05;100.00
51081;BME280;37130;55.670;37.596;2022-12-22T14:09:36;98746.16;;;1.08;100.00
51081;BME280;37130;55.670;37.596;2022-12-22T14:12:15;98747.03;;;1.07;100.00
51081;BME280;37130;55.670;37.596;2022-12-22T14:14:45;98742.78;;;1.03;100.00
51081;BME280;37130;55.670;37.596;2022-12-22T14:19:56;98750.50;;;1.07;100.00
51081;BME280;37130;55.670;37.596;2022-12-22T14:22:41;98712.84;;;0.82;100.00
51081;BME280;37130;55.670;37.596;2022-12-22T14:25:17;98731.56;;;0.99;100.00
51081;BME280;37130;55.670;37.596;2022-12-22T14:27:53;98750.56;;;1.04;100.00
51081;BME280;37130;55.670;37.596;2022-12-22T14:30:34;98685.44;;;0.64;100.00
51081;BME280;37130;55.670;37.596;2022-12-22T14:36:16;98727.75;;;1.13;100.00
51081;BME280;37130;55.670;37.596;2022-12-22T14:41:23;98731.09;;;1.19;100.00
51081;BME280;37130;55.670;37.596;2022-12-22T14:44:32;98733.69;;;1.21;100.00
51081;BME280;37130;55.670;37.596;2022-12-22T14:49:52;98741.50;;;1.21;100.00
51081;BME280;37130;55.670;37.596;2022-12-22T14:52:25;98711.53;;;1.01;100.00
51081;BME280;37130;55.670;37.596;2022-12-22T14:54:55;98758.94;;;1.17;100.00
51081;BME280;37130;55.670;37.596;2022-12-22T14:57:39;98765.25;;;1.08;100.00
51081;BME280;37130;55.670;37.596;2022-12-22T15:00:27;98787.06;;;1.04;100.00
51081;BME280;37130;55.670;37.596;2022-12-22T15:02:57;98774.03;;;1.04;100.00
51081;BME280;37130;55.670;37.596;2022-12-22T15:05:34;98798.47;;;1.00;100.00
51081;BME280;37130;55.670;37.596;2022-12-22T15:08:05;98789.72;;;1.03;100.00
51081;BME280;37130;55.670;37.596;2022-12-22T15:10:38;98778.53;;;0.98;100.00
51081;BME280;37130;55.670;37.596;2022-12-22T15:13:19;98777.78;;;0.93;100.00
51081;BME280;37130;55.670;37.596;2022-12-22T15:15:52;98738.63;;;0.55;100.00
51081;BME280;37130;55.670;37.596;2022-12-22T15:18:23;98793.44;;;0.91;100.00
51081;BME280;37130;55.670;37.596;2022-12-22T15:20:53;98789.81;;;0.97;100.00
51081;BME280;37130;55.670;37.596;2022-12-22T15:23:21;98782.19;;;0.89;100.00
51081;BME280;37130;55.670;37.596;2022-12-22T15:25:48;98786.38;;;0.96;100.00
51081;BME280;37130;55.670;37.596;2022-12-22T15:28:16;98719.31;;;0.65;100.00
51081;BME280;37130;55.670;37.596;2022-12-22T15:30:44;98782.72;;;1.05;100.00
51081;BME280;37130;55.670;37.596;2022-12-22T15:33:14;98780.13;;;1.03;100.00
51081;BME280;37130;55.670;37.596;2022-12-22T15:35:43;98784.44;;;1.06;100.00
51081;BME280;37130;55.670;37.596;2022-12-22T15:38:20;98782.72;;;1.05;100.00
51081;BME280;37130;55.670;37.596;2022-12-22T15:40:48;98792.28;;;1.04;100.00